Time;durP1;ratioP1;P1;durP2;ratioP2;P2;SDS_P1;SDS_P2;PMS_P1;PMS_P2;Temp;Humidity;BMP_temperature;BMP_pressure;BME280_temperature;BME280_humidity;BME280_pressure;Samples;Min_cycle;Max_cycle;Signal;HPM_P1;HPM_P2
2022/02/06 00:00:20;;;;;;;13.30;4.20;;;;;;;5.90;100.00;101024.91;5068390;28;20685;-54
2022/02/06 00:02:51;;;;;;;13.98;4.20;;;;;;;5.87;100.00;101008.53;5068983;28;20052;-55
2022/02/06 00:05:19;;;;;;;10.65;3.95;;;;;;;5.88;100.00;101005.84;5071568;28;20425;-54
2022/02/06 00:07:48;;;;;;;11.80;4.90;;;;;;;5.92;100.00;101007.41;5071179;28;20036;-54
2022/02/06 00:10:17;;;;;;;15.98;4.85;;;;;;;5.93;100.00;101006.50;5074440;28;20053;-50
2022/02/06 00:12:46;;;;;;;15.88;4.50;;;;;;;5.96;100.00;100997.69;5074961;28;20054;-52
2022/02/06 00:15:14;;;;;;;12.57;4.60;;;;;;;5.99;100.00;100992.34;5075015;28;20090;-50
2022/02/06 00:17:42;;;;;;;12.60;4.05;;;;;;;5.96;100.00;100978.53;5073054;28;20098;-48
2022/02/06 00:20:12;;;;;;;13.70;4.95;;;;;;;5.95;100.00;100985.53;5070670;28;20044;-47
2022/02/06 00:22:43;;;;;;;17.20;4.30;;;;;;;5.93;100.00;100975.16;5074678;28;20060;-45
2022/02/06 00:25:29;;;;;;;13.13;4.40;;;;;;;5.93;100.00;100975.16;5073759;28;20143;-49
2022/02/06 00:28:13;;;;;;;9.82;3.70;;;;;;;5.99;100.00;100965.41;5070779;28;20036;-48
2022/02/06 00:30:47;;;;;;;11.82;4.10;;;;;;;6.05;100.00;100950.31;5073668;28;20048;-45
2022/02/06 00:33:23;;;;;;;19.88;4.75;;;;;;;6.08;100.00;100944.97;5074979;28;20498;-44
2022/02/06 00:36:03;;;;;;;17.70;4.00;;;;;;;6.06;100.00;100941.56;5074906;28;20048;-48
2022/02/06 00:39:01;;;;;;;10.35;4.20;;;;;;;6.06;100.00;100931.09;5074497;28;20056;-43
2022/02/06 00:41:25;;;;;;;12.15;4.78;;;;;;;6.05;100.00;100926.81;5070516;28;20058;-46
2022/02/06 00:43:54;;;;;;;12.13;4.05;;;;;;;6.09;100.00;100927.50;5071881;28;20045;-44
2022/02/06 00:46:23;;;;;;;14.05;4.47;;;;;;;6.07;100.00;100916.31;5074882;28;20053;-46
2022/02/06 00:48:55;;;;;;;9.70;4.13;;;;;;;6.05;100.00;100915.50;5074428;28;20475;-45
2022/02/06 00:51:32;;;;;;;14.07;4.30;;;;;;;6.12;100.00;100914.31;5074422;28;20048;-45
2022/02/06 00:54:01;;;;;;;7.85;4.22;;;;;;;6.12;100.00;100892.59;5074289;28;20048;-46
2022/02/06 00:56:30;;;;;;;12.88;4.10;;;;;;;6.10;100.00;100890.06;5072269;28;20052;-44
2022/02/06 00:58:58;;;;;;;12.60;4.25;;;;;;;6.06;100.00;100897.16;5073861;28;20044;-49
2022/02/06 01:01:27;;;;;;;11.02;4.63;;;;;;;6.11;100.00;100886.53;5074215;28;20530;-49
2022/02/06 01:03:55;;;;;;;10.43;4.10;;;;;;;6.15;100.00;100889.81;5074106;28;20452;-50
2022/02/06 01:06:23;;;;;;;9.30;4.03;;;;;;;6.13;100.00;100892.50;5074097;28;20052;-47
2022/02/06 01:08:52;;;;;;;11.80;4.10;;;;;;;6.13;100.00;100876.00;5073920;28;20048;-47
2022/02/06 01:11:20;;;;;;;14.68;3.95;;;;;;;6.14;100.00;100870.72;5074072;28;20032;-49
2022/02/06 01:13:59;;;;;;;12.43;4.43;;;;;;;6.14;100.00;100859.44;5073965;28;20045;-47
2022/02/06 01:16:30;;;;;;;10.07;4.18;;;;;;;6.11;100.00;100870.84;5073462;28;20045;-47
2022/02/06 01:18:59;;;;;;;10.32;4.25;;;;;;;6.14;100.00;100857.66;5069531;28;20518;-50
2022/02/06 01:24:17;;;;;;;14.98;4.15;;;;;;;6.11;100.00;100851.72;5073662;28;20110;-46
2022/02/06 01:26:50;;;;;;;9.48;4.00;;;;;;;6.15;100.00;100845.44;5073580;28;20111;-47
2022/02/06 01:29:29;;;;;;;;;;;;;;;6.16;100.00;100858.44;5074232;28;20090;-48
2022/02/06 01:32:01;;;;;;;11.88;3.92;;;;;;;6.13;100.00;100845.50;5072532;28;19920;-48
2022/02/06 01:34:39;;;;;;;11.65;4.60;;;;;;;6.13;100.00;100842.91;5069738;28;20510;-49
2022/02/06 01:37:19;;;;;;;15.30;4.85;;;;;;;6.15;100.00;100835.84;5072019;28;20051;-46
2022/02/06 01:40:05;;;;;;;12.98;4.45;;;;;;;6.17;100.00;100833.16;5073349;28;20047;-48
2022/02/06 01:42:38;;;;;;;9.77;4.17;;;;;;;6.17;100.00;100828.78;5073436;28;20044;-45
2022/02/06 01:45:25;;;;;;;12.43;4.00;;;;;;;6.15;100.00;100820.19;5073328;28;20047;-46
2022/02/06 02:01:58;;;;;;;15.23;4.03;;;;;;;6.23;100.00;100807.59;5069900;28;20068;-47
2022/02/06 02:04:37;;;;;;;;;;;;;;;6.23;100.00;100805.00;5073004;28;20536;-46
2022/02/06 02:10:24;;;;;;;9.32;3.13;;;;;;;6.22;100.00;100790.25;5065792;28;20048;-52
2022/02/06 02:16:28;;;;;;;9.27;3.30;;;;;;;6.25;100.00;100779.63;5072175;28;20133;-49
2022/02/06 02:21:58;;;;;;;6.95;2.78;;;;;;;6.24;100.00;100766.66;5069171;28;20052;-46
2022/02/06 02:25:06;;;;;;;12.45;3.05;;;;;;;6.24;100.00;100757.06;5072546;28;20546;-47
2022/02/06 02:27:50;;;;;;;8.77;3.00;;;;;;;6.30;100.00;100762.91;5072444;28;20056;-48
2022/02/06 02:42:50;;;;;;;7.20;2.70;;;;;;;6.33;100.00;100760.16;5190412;27;20731;-47
2022/02/06 02:47:45;;;;;;;7.80;3.15;;;;;;;6.32;100.00;100706.22;5066726;28;20052;-53
2022/02/06 02:50:19;;;;;;;9.65;2.70;;;;;;;6.32;100.00;100701.00;5153729;27;20054;-54
2022/02/06 02:52:53;;;;;;;12.35;3.17;;;;;;;6.34;100.00;100696.53;5171208;27;20370;-56
2022/02/06 02:58:18;;;;;;;9.85;3.67;;;;;;;6.35;100.00;100686.00;5169406;27;20106;-54
2022/02/06 03:00:55;;;;;;;9.13;3.60;;;;;;;6.32;100.00;100691.38;5171335;27;20050;-50
2022/02/06 03:03:26;;;;;;;8.38;3.20;;;;;;;6.34;100.00;100684.31;5168330;27;20066;-52
2022/02/06 03:05:59;;;;;;;8.90;3.30;;;;;;;6.32;100.00;100680.94;5167974;27;20118;-51
2022/02/06 03:08:28;;;;;;;10.52;3.33;;;;;;;6.31;100.00;100697.50;5171447;27;20149;-55
2022/02/06 03:10:59;;;;;;;9.10;3.38;;;;;;;6.28;100.00;100663.72;5171303;27;20524;-54
2022/02/06 03:13:36;;;;;;;9.75;3.15;;;;;;;6.30;100.00;100661.91;5171012;27;20034;-52
2022/02/06 03:16:16;;;;;;;10.23;3.42;;;;;;;6.30;100.00;100669.72;5169784;27;20069;-52
2022/02/06 03:18:51;;;;;;;7.90;3.55;;;;;;;6.32;100.00;100667.88;5167561;27;20052;-53
2022/02/06 03:21:24;;;;;;;9.65;2.80;;;;;;;6.29;100.00;100678.47;5169659;27;20042;-50
2022/02/06 03:23:55;;;;;;;10.55;3.50;;;;;;;6.28;100.00;100673.34;5170952;27;20042;-51
2022/02/06 03:26:24;;;;;;;11.63;3.40;;;;;;;6.30;100.00;100655.81;5170588;27;20039;-52
2022/02/06 03:28:54;;;;;;;8.05;3.17;;;;;;;6.29;100.00;100654.97;5167410;27;20070;-55
2022/02/06 03:31:23;;;;;;;9.18;3.28;;;;;;;6.29;100.00;100665.41;5168942;27;20049;-50
2022/02/06 03:33:51;;;;;;;8.15;3.25;;;;;;;6.24;100.00;100660.44;5170861;27;20354;-53
2022/02/06 03:36:22;;;;;;;11.27;3.05;;;;;;;6.32;100.00;100665.25;5170660;27;20043;-53
2022/02/06 03:38:52;;;;;;;9.90;2.90;;;;;;;6.34;100.00;100646.91;5167164;27;20500;-54
2022/02/06 03:41:21;;;;;;;9.10;3.15;;;;;;;6.32;100.00;100654.81;5167590;27;20045;-52
2022/02/06 03:43:56;;;;;;;11.15;3.50;;;;;;;6.24;100.00;100646.50;5161649;27;20054;-55
2022/02/06 03:46:30;;;;;;;7.13;2.80;;;;;;;6.23;100.00;100639.59;5156876;27;20050;-54
2022/02/06 03:49:05;;;;;;;10.10;2.85;;;;;;;6.23;100.00;100635.22;5152982;27;20530;-54
2022/02/06 03:51:38;;;;;;;13.55;3.08;;;;;;;6.20;100.00;100635.41;5153649;27;20050;-53
2022/02/06 03:54:07;;;;;;;;;;;;;;;6.25;100.00;100637.75;5156702;27;20058;-53
2022/02/06 03:56:36;;;;;;;6.80;2.90;;;;;;;6.21;100.00;100636.22;5154137;27;19919;-52
2022/02/06 03:59:04;;;;;;;8.25;2.63;;;;;;;6.18;100.00;100621.56;5152942;27;20042;-53
2022/02/06 04:01:32;;;;;;;10.32;2.80;;;;;;;6.21;100.00;100615.34;5155600;27;20049;-51
2022/02/06 04:04:00;;;;;;;9.32;2.83;;;;;;;6.30;100.00;100619.25;5152460;27;20050;-53
2022/02/06 04:06:29;;;;;;;6.32;2.85;;;;;;;6.24;100.00;100610.81;5154200;27;20492;-52
2022/02/06 04:08:59;;;;;;;10.13;2.92;;;;;;;6.25;100.00;100609.03;5153140;27;20050;-53
2022/02/06 04:11:43;;;;;;;11.02;2.95;;;;;;;6.25;100.00;100609.03;5151986;27;20070;-52
2022/02/06 04:14:22;;;;;;;9.23;3.30;;;;;;;6.18;100.00;100598.06;5156141;27;20120;-51
2022/02/06 04:16:53;;;;;;;11.88;3.35;;;;;;;6.20;100.00;100598.84;5155752;27;20552;-54
2022/02/06 04:19:24;;;;;;;8.20;2.97;;;;;;;6.28;100.00;100594.97;5155811;27;20041;-51
2022/02/06 04:21:54;;;;;;;8.77;3.05;;;;;;;6.29;100.00;100596.69;5156246;27;20043;-53
2022/02/06 04:24:24;;;;;;;8.40;3.00;;;;;;;6.28;100.00;100589.75;5155594;27;20087;-53
2022/02/06 04:26:53;;;;;;;7.78;2.70;;;;;;;6.28;100.00;100589.75;5133604;27;20050;-53
2022/02/06 04:29:22;;;;;;;10.38;3.20;;;;;;;6.22;100.00;100588.31;5153567;27;20134;-53
2022/02/06 04:31:51;;;;;;;8.70;2.95;;;;;;;6.22;100.00;100589.13;5155826;27;20431;-53
2022/02/06 04:34:23;;;;;;;9.13;3.22;;;;;;;6.22;100.00;100586.53;5152514;27;20107;-54
2022/02/06 04:36:58;;;;;;;9.55;3.15;;;;;;;6.22;100.00;100596.97;5151902;27;20046;-56
2022/02/06 04:42:23;;;;;;;7.57;2.97;;;;;;;6.24;100.00;100569.03;5155846;27;20419;-54
2022/02/06 04:45:19;;;;;;;10.18;3.53;;;;;;;6.29;100.00;100557.50;5152587;27;20056;-52
2022/02/06 04:48:11;;;;;;;8.93;3.20;;;;;;;6.28;100.00;100567.09;5152698;27;20386;-53
2022/02/06 05:16:04;;;;;;;11.77;3.88;;;;;;;6.38;100.00;100505.63;5138803;27;20443;-50
2022/02/06 05:19:07;;;;;;;7.70;3.53;;;;;;;6.36;100.00;100506.63;5154966;27;20049;-53
2022/02/06 05:21:57;;;;;;;8.50;3.42;;;;;;;6.33;100.00;100498.97;5154719;27;20055;-54
2022/02/06 05:24:54;;;;;;;11.27;3.75;;;;;;;6.33;100.00;100493.72;5154527;27;20046;-50
2022/02/06 05:27:35;;;;;;;8.98;3.50;;;;;;;6.34;100.00;100485.81;5154440;27;20556;-54
2022/02/06 05:30:11;;;;;;;11.30;4.10;;;;;;;6.43;100.00;100479.25;5154794;27;20412;-55
2022/02/06 05:32:50;;;;;;;9.05;3.90;;;;;;;6.43;100.00;100472.25;5154231;27;20055;-53
2022/02/06 05:35:18;;;;;;;11.75;4.53;;;;;;;6.42;100.00;100472.31;5150559;27;20091;-54
2022/02/06 05:37:46;;;;;;;9.23;4.00;;;;;;;6.40;100.00;100467.19;5151684;27;20054;-52
2022/02/06 05:40:15;;;;;;;8.43;4.03;;;;;;;6.49;100.00;100463.25;5155055;27;20046;-51
2022/02/06 05:42:43;;;;;;;9.05;4.03;;;;;;;6.53;100.00;100461.28;5154637;27;20358;-51
2022/02/06 05:45:18;;;;;;;11.43;4.60;;;;;;;6.47;100.00;100465.09;5151465;27;20831;-50
2022/02/06 05:47:46;;;;;;;9.80;4.22;;;;;;;6.50;100.00;100464.06;5150726;27;20508;-53
2022/02/06 05:50:15;;;;;;;12.32;4.60;;;;;;;6.50;100.00;100454.47;5154637;27;20497;-52
2022/02/06 05:52:43;;;;;;;10.38;5.22;;;;;;;6.59;100.00;100456.56;5154165;27;20042;-50
2022/02/06 05:55:13;;;;;;;12.55;4.25;;;;;;;6.59;100.00;100459.19;5154122;27;20055;-51
2022/02/06 05:57:42;;;;;;;10.90;4.97;;;;;;;6.57;100.00;100454.97;5154035;27;20050;-53
2022/02/06 06:00:13;;;;;;;13.38;4.93;;;;;;;6.55;100.00;100460.28;5150910;27;20054;-54
2022/02/06 06:02:42;;;;;;;14.63;5.60;;;;;;;6.57;100.00;100441.91;5150947;27;20055;-47
2022/02/06 06:05:10;;;;;;;11.68;5.00;;;;;;;6.58;100.00;100447.03;5152196;27;20051;-53
2022/02/06 06:07:43;;;;;;;15.52;5.22;;;;;;;6.58;100.00;100438.38;5150170;27;20046;-52
2022/02/06 06:10:12;;;;;;;11.55;4.90;;;;;;;6.67;100.00;100439.66;5134338;27;20119;-53
2022/02/06 06:12:41;;;;;;;11.68;5.13;;;;;;;6.65;100.00;100433.66;5153774;27;20078;-51
2022/02/06 06:15:09;;;;;;;13.20;4.85;;;;;;;6.63;100.00;100432.91;5153217;27;20054;-52
2022/02/06 06:17:40;;;;;;;13.27;5.20;;;;;;;6.65;100.00;100431.03;5150495;27;20051;-51
2022/02/06 06:20:13;;;;;;;14.35;5.18;;;;;;;6.68;100.00;100421.28;5132594;27;20545;-52
2022/02/06 06:22:41;;;;;;;;;;;;;;;6.68;100.00;100428.25;5151824;27;20057;-54
2022/02/06 06:25:11;;;;;;;10.77;5.07;;;;;;;6.65;100.00;100424.03;5148118;27;19984;-52
2022/02/06 06:27:39;;;;;;;18.80;5.50;;;;;;;6.66;100.00;100419.66;5153626;27;20530;-50
2022/02/06 06:30:08;;;;;;;10.93;4.80;;;;;;;6.65;100.00;100417.97;5152488;27;20074;-51
2022/02/06 06:32:36;;;;;;;10.18;5.18;;;;;;;6.69;100.00;100404.63;5150065;27;20055;-50
2022/02/06 06:35:07;;;;;;;11.27;4.65;;;;;;;6.69;100.00;100396.81;5152227;27;20046;-54
2022/02/06 06:37:39;;;;;;;11.20;4.55;;;;;;;6.74;100.00;100404.41;5134979;27;20046;-51
2022/02/06 06:40:08;;;;;;;9.60;4.82;;;;;;;6.70;100.00;100408.13;5153651;27;20066;-52
2022/02/06 06:42:36;;;;;;;10.75;5.45;;;;;;;6.71;100.00;100396.75;5153667;27;20035;-53
2022/02/06 06:45:05;;;;;;;14.80;5.22;;;;;;;6.70;100.00;100395.06;5153620;27;20053;-54
2022/02/06 06:47:33;;;;;;;11.43;5.90;;;;;;;6.72;100.00;100396.66;5153490;27;20074;-52
2022/02/06 06:50:03;;;;;;;9.40;4.88;;;;;;;6.71;100.00;100389.72;5153604;27;20035;-51
2022/02/06 06:52:32;;;;;;;9.70;4.70;;;;;;;6.72;100.00;100387.94;5153598;27;20462;-53
2022/02/06 06:55:03;;;;;;;9.48;5.18;;;;;;;6.68;100.00;100382.06;5153630;27;20035;-51
2022/02/06 06:57:36;;;;;;;10.35;4.93;;;;;;;6.66;100.00;100383.91;5135063;27;20051;-51
2022/02/06 07:02:56;;;;;;;8.65;4.65;;;;;;;6.68;100.00;100365.53;5124138;27;20050;-55
2022/02/06 07:05:24;;;;;;;7.95;4.20;;;;;;;6.69;100.00;100367.22;5149829;27;20054;-54
2022/02/06 07:07:55;;;;;;;12.10;4.82;;;;;;;6.65;100.00;100355.25;5134337;27;20047;-50
2022/02/06 07:10:23;;;;;;;8.68;4.97;;;;;;;6.62;100.00;100356.28;5152922;27;20043;-55
2022/02/06 07:12:51;;;;;;;8.82;4.93;;;;;;;6.65;100.00;100350.88;5153315;27;20493;-55
2022/02/06 07:15:20;;;;;;;7.32;4.60;;;;;;;6.69;100.00;100339.31;5153233;27;20043;-53
2022/02/06 07:17:48;;;;;;;9.60;4.90;;;;;;;6.60;100.00;100338.06;5153588;27;20109;-52
2022/02/06 07:20:16;;;;;;;9.05;4.90;;;;;;;6.63;100.00;100333.63;5157452;27;20043;-52
2022/02/06 07:22:45;;;;;;;9.68;4.55;;;;;;;6.65;100.00;100327.34;5155267;27;20047;-55
2022/02/06 07:25:15;;;;;;;8.02;4.82;;;;;;;6.65;100.00;100313.44;5152311;27;20409;-53
2022/02/06 07:27:47;;;;;;;9.30;4.80;;;;;;;6.65;100.00;100309.06;5156101;27;20035;-54
2022/02/06 07:30:16;;;;;;;9.68;5.13;;;;;;;6.65;100.00;100301.22;5157249;27;20047;-55
2022/02/06 07:32:45;;;;;;;9.90;4.70;;;;;;;6.66;100.00;100291.63;5155464;27;20103;-52
2022/02/06 07:35:13;;;;;;;9.60;4.40;;;;;;;6.71;100.00;100282.59;5152283;27;20568;-50
2022/02/06 07:37:44;;;;;;;8.13;4.78;;;;;;;6.72;100.00;100276.44;5155379;27;20531;-54
2022/02/06 07:40:13;;;;;;;10.65;4.65;;;;;;;6.76;100.00;100277.06;5152367;27;20045;-53
2022/02/06 07:42:42;;;;;;;8.43;4.60;;;;;;;6.74;100.00;100263.28;5153255;27;20047;-50
2022/02/06 07:45:12;;;;;;;9.70;4.65;;;;;;;6.73;100.00;100256.34;5156666;27;20123;-52
2022/02/06 07:47:42;;;;;;;10.32;4.97;;;;;;;6.79;100.00;100256.00;5156751;27;20062;-53
2022/02/06 07:50:11;;;;;;;8.30;4.47;;;;;;;6.81;100.00;100242.84;5153704;27;20055;-52
2022/02/06 07:52:39;;;;;;;8.98;4.45;;;;;;;6.77;100.00;100243.00;5153175;27;20445;-52
2022/02/06 07:55:09;;;;;;;9.45;5.25;;;;;;;6.79;100.00;100240.31;5155940;27;20057;-46
2022/02/06 07:57:38;;;;;;;13.43;5.97;;;;;;;6.83;100.00;100228.75;5156656;27;20547;-47
2022/02/06 08:00:09;;;;;;;8.77;4.55;;;;;;;6.82;100.00;100215.78;5136324;27;20050;-46
2022/02/06 08:02:37;;;;;;;10.65;5.15;;;;;;;6.86;100.00;100217.28;5152894;27;20104;-47
2022/02/06 08:05:06;;;;;;;11.27;5.28;;;;;;;6.83;100.00;100214.81;5155920;27;20434;-44
2022/02/06 08:07:34;;;;;;;10.07;4.85;;;;;;;6.86;100.00;100205.03;5156462;27;20047;-46
2022/02/06 08:10:03;;;;;;;9.52;5.28;;;;;;;6.88;100.00;100202.34;5155409;27;20091;-45
2022/02/06 08:12:34;;;;;;;11.60;5.65;;;;;;;6.84;100.00;100201.66;5152614;27;20051;-45
2022/02/06 08:15:04;;;;;;;9.43;5.13;;;;;;;6.87;100.00;100192.81;5154202;27;20035;-47
2022/02/06 08:17:36;;;;;;;10.95;5.28;;;;;;;6.89;100.00;100193.56;5156139;27;20042;-46
2022/02/06 08:20:07;;;;;;;11.57;5.50;;;;;;;6.86;100.00;100194.59;5156076;27;20081;-46
2022/02/06 08:22:35;;;;;;;12.05;5.68;;;;;;;6.94;100.00;100186.28;5156294;27;20509;-46
2022/02/06 08:25:05;;;;;;;11.65;5.80;;;;;;;6.93;100.00;100174.16;5156197;27;20430;-46
2022/02/06 08:27:40;;;;;;;8.98;5.35;;;;;;;6.89;100.00;100170.88;5156001;27;20107;-46
2022/02/06 08:30:10;;;;;;;9.60;4.95;;;;;;;6.90;100.00;100161.28;5155867;27;20050;-46
2022/02/06 08:32:42;;;;;;;9.80;5.45;;;;;;;6.91;100.00;100160.31;5155571;27;20043;-45
2022/02/06 08:35:11;;;;;;;9.95;5.60;;;;;;;6.91;100.00;100145.50;5155893;27;20039;-45
2022/02/06 08:37:39;;;;;;;8.00;4.68;;;;;;;6.93;100.00;100137.56;5154109;27;20043;-45
2022/02/06 08:40:12;;;;;;;8.85;5.10;;;;;;;6.89;100.00;100126.44;5150795;27;20054;-47
2022/02/06 08:42:41;;;;;;;9.60;4.85;;;;;;;6.96;100.00;100136.53;5153352;27;20126;-45
2022/02/06 08:45:11;;;;;;;7.95;4.00;;;;;;;6.91;100.00;100124.56;5135597;27;20055;-47
2022/02/06 08:47:42;;;;;;;10.00;4.57;;;;;;;6.97;100.00;100119.88;5151864;27;20050;-48
2022/02/06 08:50:11;;;;;;;7.28;3.67;;;;;;;6.91;100.00;100113.25;5152785;27;20070;-48
2022/02/06 08:52:39;;;;;;;7.65;3.47;;;;;;;6.89;100.00;100091.63;5155224;27;20519;-50
2022/02/06 08:55:11;;;;;;;6.00;2.72;;;;;;;6.93;100.00;100093.94;5155259;27;20104;-49
2022/02/06 08:57:44;;;;;;;4.45;2.60;;;;;;;6.89;100.00;100089.00;5155132;27;20058;-49
2022/02/06 09:00:14;;;;;;;4.90;2.40;;;;;;;6.89;100.00;100074.16;5155157;27;20050;-47
2022/02/06 09:02:43;;;;;;;4.78;2.22;;;;;;;6.89;100.00;100076.75;5155117;27;20504;-47
2022/02/06 09:05:12;;;;;;;4.72;2.10;;;;;;;6.85;100.00;100070.03;5155086;27;20057;-45
2022/02/06 09:07:41;;;;;;;7.35;2.35;;;;;;;6.83;100.00;100066.69;5151809;27;20054;-48
2022/02/06 09:10:12;;;;;;;5.10;2.33;;;;;;;6.86;100.00;100048.22;5149809;27;20046;-45
2022/02/06 09:12:45;;;;;;;5.05;2.10;;;;;;;6.89;100.00;100032.31;5155236;27;20481;-47
2022/02/06 09:15:14;;;;;;;6.45;2.10;;;;;;;6.93;100.00;100030.38;5152938;27;20047;-50
2022/02/06 09:17:45;;;;;;;7.45;2.55;;;;;;;6.87;100.00;100021.13;5151437;27;20102;-49
2022/02/06 09:20:15;;;;;;;6.25;2.45;;;;;;;6.92;100.00;100005.16;5153819;27;20300;-50
2022/02/06 09:22:43;;;;;;;6.18;3.22;;;;;;;6.92;100.00;99989.47;5154575;27;20047;-48
2022/02/06 09:25:12;;;;;;;6.35;2.55;;;;;;;6.96;100.00;99995.34;5154918;27;20496;-50
2022/02/06 09:27:41;;;;;;;3.97;2.30;;;;;;;6.96;100.00;99984.91;5153021;27;20046;-44
2022/02/06 09:30:12;;;;;;;5.45;2.53;;;;;;;6.96;100.00;99977.06;5151217;27;20100;-47
2022/02/06 09:37:37;;;;;;;5.13;2.72;;;;;;;7.04;100.00;99956.50;5154726;27;20051;-48
2022/02/06 09:40:09;;;;;;;6.78;2.70;;;;;;;7.05;100.00;99945.94;5154526;27;20083;-49
2022/02/06 09:42:38;;;;;;;5.68;2.80;;;;;;;7.04;100.00;99941.63;5153959;27;20078;-47
2022/02/06 09:45:07;;;;;;;6.78;2.58;;;;;;;7.01;100.00;99925.28;5154494;27;20042;-48
2022/02/06 09:47:36;;;;;;;8.38;2.90;;;;;;;7.07;100.00;99919.69;5154511;27;20161;-50
2022/02/06 09:50:05;;;;;;;5.85;2.60;;;;;;;7.05;100.00;99922.38;5135873;27;20034;-48
2022/02/06 09:52:38;;;;;;;5.70;2.30;;;;;;;7.09;100.00;99923.03;5154274;27;20107;-46
2022/02/06 09:55:12;;;;;;;4.47;2.20;;;;;;;7.11;100.00;99910.69;5153999;27;20419;-46
2022/02/06 09:57:52;;;;;;;6.28;2.30;;;;;;;7.11;100.00;99910.69;5154323;27;20050;-45
2022/02/06 10:00:22;;;;;;;6.10;2.65;;;;;;;7.17;100.00;99907.69;5154419;27;20121;-45
2022/02/06 10:02:52;;;;;;;6.63;2.63;;;;;;;7.18;100.00;99895.44;5154331;27;20378;-46
2022/02/06 10:05:21;;;;;;;6.15;2.75;;;;;;;7.16;100.00;99900.78;5154190;27;20509;-46
2022/02/06 10:07:58;;;;;;;6.07;2.60;;;;;;;7.21;100.00;99892.63;5153986;27;20083;-48
2022/02/06 10:10:27;;;;;;;4.80;2.53;;;;;;;7.20;100.00;99872.63;5153771;27;20043;-46
2022/02/06 10:13:01;;;;;;;8.05;2.80;;;;;;;7.17;100.00;99888.53;5154118;27;20373;-46
2022/02/06 10:15:29;;;;;;;5.95;2.50;;;;;;;7.15;100.00;99875.56;5153881;27;20042;-49
2022/02/06 10:17:58;;;;;;;4.85;2.33;;;;;;;7.20;100.00;99859.53;5154057;27;20043;-47
2022/02/06 10:20:31;;;;;;;4.63;1.92;;;;;;;7.20;100.00;99863.03;5154121;27;20039;-49
2022/02/06 10:23:07;;;;;;;3.58;1.90;;;;;;;7.18;100.00;99837.91;5153725;27;20043;-47
2022/02/06 10:25:44;;;;;;;6.18;2.10;;;;;;;7.24;100.00;99838.34;5154127;27;20046;-51
2022/02/06 10:28:32;;;;;;;5.55;2.22;;;;;;;7.22;100.00;99821.06;5153893;27;20054;-49
2022/02/06 10:31:04;;;;;;;5.10;1.80;;;;;;;7.21;100.00;99809.78;5153691;27;20427;-48
2022/02/06 10:33:51;;;;;;;5.20;1.73;;;;;;;7.21;100.00;99796.72;5153524;27;20055;-48
2022/02/06 10:36:24;;;;;;;4.32;1.90;;;;;;;7.21;100.00;99788.88;5153871;27;20066;-45
2022/02/06 10:39:03;;;;;;;4.53;1.75;;;;;;;7.22;100.00;99787.06;5153292;27;20042;-49
2022/02/06 10:41:34;;;;;;;4.97;2.20;;;;;;;7.22;100.00;99777.44;5153620;27;20087;-46
2022/02/06 10:44:05;;;;;;;3.92;2.00;;;;;;;7.31;100.00;99778.59;5153663;27;20042;-50
2022/02/06 10:46:36;;;;;;;4.68;2.00;;;;;;;7.29;100.00;99772.63;5153868;27;20076;-47
2022/02/06 10:49:12;;;;;;;4.32;2.00;;;;;;;7.25;100.00;99753.72;5153724;27;20049;-45
2022/02/06 10:51:43;;;;;;;4.53;1.77;;;;;;;7.33;100.00;99747.09;5153539;27;20038;-46
2022/02/06 10:54:16;;;;;;;2.90;1.60;;;;;;;7.34;100.00;99756.63;5156106;27;20434;-46
2022/02/06 10:57:02;;;;;;;3.25;1.73;;;;;;;7.35;100.00;99742.59;5157823;27;20057;-45
2022/02/06 10:59:47;;;;;;;3.95;1.83;;;;;;;7.37;100.00;99738.94;5157670;27;20524;-46
2022/02/06 11:02:20;;;;;;;3.65;1.67;;;;;;;7.30;100.00;99721.19;5157879;27;20050;-45
2022/02/06 11:05:00;;;;;;;4.82;1.83;;;;;;;7.28;100.00;99698.56;5157555;27;20045;-48
2022/02/06 11:07:29;;;;;;;7.68;2.60;;;;;;;7.25;100.00;99693.56;5157756;27;20046;-45
2022/02/06 11:10:13;;;;;;;3.28;1.63;;;;;;;7.24;100.00;99676.19;5157528;27;20481;-46
2022/02/06 11:12:43;;;;;;;2.97;1.90;;;;;;;7.24;100.00;99677.94;5157572;27;20058;-46
2022/02/06 11:15:28;;;;;;;5.35;1.50;;;;;;;7.24;100.00;99662.25;5157477;27;20043;-49
2022/02/06 11:18:09;;;;;;;4.75;1.50;;;;;;;7.21;100.00;99660.72;5157506;27;20073;-47
2022/02/06 11:20:38;;;;;;;2.78;1.40;;;;;;;7.20;100.00;99651.19;5157363;27;20041;-50
2022/02/06 11:23:06;;;;;;;2.25;1.38;;;;;;;7.20;100.00;99635.50;5157419;27;20095;-46
2022/02/06 11:25:36;;;;;;;4.88;1.40;;;;;;;7.20;100.00;99653.81;5157331;27;20826;-49
2022/02/06 11:28:06;;;;;;;2.85;1.48;;;;;;;7.25;100.00;99638.66;5157565;27;20543;-45
2022/02/06 11:30:34;;;;;;;5.50;1.27;;;;;;;7.26;100.00;99650.75;5157487;27;20062;-44
2022/02/06 11:33:05;;;;;;;4.68;1.60;;;;;;;7.26;100.00;99635.06;5156989;27;20099;-49
2022/02/06 11:35:35;;;;;;;6.45;1.77;;;;;;;7.23;100.00;99640.50;5157120;27;20047;-48
2022/02/06 11:44:36;;;;;;;6.03;1.75;;;;;;;7.27;100.00;99644.59;5097832;27;20056;-45
2022/02/06 11:47:15;;;;;;;2.85;1.40;;;;;;;7.26;100.00;99621.97;5156628;27;20042;-49
2022/02/06 11:49:46;;;;;;;3.72;1.65;;;;;;;7.30;100.00;99645.31;5156759;27;20055;-48
2022/02/06 11:52:15;;;;;;;2.95;1.45;;;;;;;7.33;100.00;99655.56;5157189;27;20569;-47
2022/02/06 11:54:47;;;;;;;2.33;1.50;;;;;;;7.33;100.00;99728.81;5156586;27;20381;-46
2022/02/06 11:57:26;;;;;;;3.80;1.55;;;;;;;7.23;100.00;99746.91;5156711;27;20043;-47
2022/02/06 12:00:17;;;;;;;0.98;0.60;;;;;;;6.98;100.00;99752.97;5156699;27;20390;-48
2022/02/06 12:02:50;;;;;;;0.60;0.50;;;;;;;6.82;100.00;99768.84;5156577;27;20129;-44
2022/02/06 12:05:23;;;;;;;1.27;0.63;;;;;;;6.61;100.00;99782.38;5156080;27;20442;-48
2022/02/06 12:08:07;;;;;;;0.90;0.40;;;;;;;6.21;100.00;99800.63;5156432;27;20045;-45
2022/02/06 12:11:09;;;;;;;0.65;0.50;;;;;;;5.97;100.00;99802.97;5156401;27;20050;-47
2022/02/06 12:13:38;;;;;;;0.65;0.30;;;;;;;5.74;100.00;99807.84;5156542;27;20392;-45
2022/02/06 12:16:07;;;;;;;2.05;0.90;;;;;;;5.81;100.00;99819.59;5156236;27;20043;-46
2022/02/06 12:18:38;;;;;;;2.05;0.60;;;;;;;5.67;100.00;99823.03;5156516;27;20477;-47
2022/02/06 12:21:12;;;;;;;1.77;0.40;;;;;;;5.64;100.00;99830.22;5156438;27;20464;-45
2022/02/06 12:23:43;;;;;;;3.15;0.90;;;;;;;5.54;100.00;99838.59;5156290;27;20050;-48
2022/02/06 12:26:40;;;;;;;2.80;0.60;;;;;;;5.51;100.00;99838.78;5156240;27;20047;-46
2022/02/06 12:29:13;;;;;;;1.33;0.70;;;;;;;5.53;100.00;99841.28;5156121;27;20042;-43
2022/02/06 12:31:57;;;;;;;0.60;0.60;;;;;;;5.46;100.00;99830.38;5137412;27;20058;-44
2022/02/06 12:37:31;;;;;;;1.38;0.70;;;;;;;5.53;100.00;99828.25;5155864;27;20609;-46
2022/02/06 12:40:02;;;;;;;1.27;0.60;;;;;;;5.56;100.00;99844.56;5155867;27;20111;-47
2022/02/06 12:42:33;;;;;;;2.67;0.63;;;;;;;5.56;100.00;99823.69;5155984;27;20481;-47
2022/02/06 12:45:06;;;;;;;2.80;0.70;;;;;;;5.59;100.00;99831.31;5155671;27;20046;-46
2022/02/06 12:47:40;;;;;;;3.05;0.70;;;;;;;5.59;100.00;99840.94;5155963;27;20042;-47
2022/02/06 12:50:21;;;;;;;3.85;1.00;;;;;;;5.62;100.00;99850.31;5156144;27;20047;-45
2022/02/06 12:52:50;;;;;;;5.60;1.17;;;;;;;5.66;100.00;99857.88;5155556;27;20045;-49
2022/02/06 12:55:25;;;;;;;6.20;1.40;;;;;;;5.69;100.00;99857.69;5155575;27;20050;-45
2022/02/06 12:57:55;;;;;;;3.95;0.90;;;;;;;5.73;100.00;99871.41;5155456;27;20130;-48
2022/02/06 13:00:31;;;;;;;2.83;0.75;;;;;;;5.78;100.00;99871.09;5155594;27;20039;-45
2022/02/06 13:03:26;;;;;;;1.00;0.70;;;;;;;5.70;100.00;99861.13;5155424;27;20046;-44
2022/02/06 13:05:58;;;;;;;2.15;0.80;;;;;;;5.76;100.00;99864.19;5136723;27;20099;-44
2022/02/06 13:08:27;;;;;;;3.97;0.90;;;;;;;5.83;100.00;99854.22;5155189;27;20055;-47
2022/02/06 13:10:59;;;;;;;5.00;0.70;;;;;;;5.89;100.00;99853.88;5154705;27;20106;-47
2022/02/06 13:13:34;;;;;;;4.20;1.00;;;;;;;5.93;100.00;99860.59;5155066;27;20045;-47
2022/02/06 13:16:36;;;;;;;5.85;0.95;;;;;;;5.95;100.00;99857.03;5154374;27;20042;-47
2022/02/06 13:22:26;;;;;;;4.70;0.80;;;;;;;5.99;100.00;99855.97;5152592;27;20690;-50
2022/02/06 13:25:19;;;;;;;5.85;0.95;;;;;;;5.95;100.00;99857.88;5155155;27;20092;-46